Time;durP1;ratioP1;P1;durP2;ratioP2;P2;SDS_P1;SDS_P2;PMS_P1;PMS_P2;Temp;Humidity;BMP_temperature;BMP_pressure;BME280_temperature;BME280_humidity;BME280_pressure;Samples;Min_cycle;Max_cycle;Signal;HPM_P1;HPM_P2
2022/04/14 00:00:30;;;;;;;2.97;2.10;;;;;;;2.56;69.88;100129.75;5051507;28;20029;-56
2022/04/14 00:02:55;;;;;;;2.60;1.88;;;;;;;2.53;70.15;100132.53;5049612;28;20120;-53
2022/04/14 00:05:22;;;;;;;5.13;1.67;;;;;;;2.59;69.46;100129.63;5051294;28;20029;-54
2022/04/14 00:07:47;;;;;;;2.88;1.73;;;;;;;2.53;69.63;100140.47;5051638;28;20033;-52
2022/04/14 00:10:14;;;;;;;3.80;1.70;;;;;;;2.46;70.11;100137.22;5051146;28;20079;-55
2022/04/14 00:12:40;;;;;;;1.92;1.60;;;;;;;2.42;69.86;100133.88;5050517;28;20059;-53
2022/04/14 00:15:07;;;;;;;3.05;1.67;;;;;;;2.09;70.05;100070.91;5051282;28;20029;-55
2022/04/14 00:17:33;;;;;;;2.55;1.48;;;;;;;2.38;70.10;100126.13;5051338;28;20021;-53
2022/04/14 00:20:00;;;;;;;2.38;1.77;;;;;;;2.10;70.33;100087.63;5049780;28;20041;-54
2022/04/14 00:22:25;;;;;;;2.08;1.60;;;;;;;2.31;70.83;100122.03;5050439;28;20029;-50
2022/04/14 00:24:51;;;;;;;2.38;1.73;;;;;;;2.29;70.95;100111.50;5050731;28;20029;-54
2022/04/14 00:27:20;;;;;;;2.13;1.80;;;;;;;2.31;70.54;100122.88;5050719;28;20029;-54
2022/04/14 00:29:49;;;;;;;2.72;1.77;;;;;;;2.22;70.75;100102.13;5050644;28;20060;-52
2022/04/14 00:32:15;;;;;;;1.90;1.30;;;;;;;2.23;70.58;100117.88;5050421;28;20052;-52
2022/04/14 00:34:41;;;;;;;1.67;1.58;;;;;;;2.21;71.10;100113.63;5050919;28;20548;-53
2022/04/14 00:37:07;;;;;;;2.05;1.30;;;;;;;2.01;70.73;100091.50;5050427;28;20037;-55
2022/04/14 00:39:32;;;;;;;1.90;1.40;;;;;;;1.97;70.86;100096.03;5049617;28;20033;-57
2022/04/14 00:41:58;;;;;;;1.63;1.13;;;;;;;2.04;70.53;100101.94;5050671;28;20330;-53
2022/04/14 00:44:23;;;;;;;3.22;1.30;;;;;;;1.94;70.93;100082.97;5050174;28;20035;-51
2022/04/14 00:46:49;;;;;;;3.03;1.50;;;;;;;2.04;71.30;100106.34;5050213;28;20033;-55
2022/04/14 00:49:15;;;;;;;1.80;1.40;;;;;;;2.01;71.61;100120.56;5050752;28;20028;-54
2022/04/14 00:51:41;;;;;;;1.88;1.35;;;;;;;1.96;71.30;100115.47;5050174;28;20353;-52
2022/04/14 00:54:06;;;;;;;1.70;1.30;;;;;;;1.96;71.40;100119.91;5050195;28;20029;-55
2022/04/14 00:56:32;;;;;;;3.20;1.63;;;;;;;1.98;71.38;100116.25;5050482;28;20028;-50
2022/04/14 00:58:58;;;;;;;1.83;1.15;;;;;;;1.94;71.86;100108.53;5048469;28;20079;-55
2022/04/14 01:01:23;;;;;;;1.80;1.20;;;;;;;2.06;71.31;100115.94;5049817;28;20059;-51
2022/04/14 01:03:51;;;;;;;3.58;1.48;;;;;;;1.97;71.23;100118.97;5050589;28;20100;-52
2022/04/14 01:06:23;;;;;;;1.67;1.30;;;;;;;1.99;71.52;100127.69;5050671;28;20071;-57
2022/04/14 01:11:35;;;;;;;2.00;1.40;;;;;;;1.92;71.56;100123.56;5050382;28;20024;-52
2022/04/14 01:14:01;;;;;;;2.40;1.40;;;;;;;1.84;71.69;100122.09;5050766;28;20037;-53
2022/04/14 01:16:27;;;;;;;2.35;1.75;;;;;;;1.84;71.77;100127.38;5049880;28;20381;-50
2022/04/14 01:18:52;;;;;;;5.50;1.60;;;;;;;1.82;72.15;100134.50;5049705;28;20033;-55
2022/04/14 01:21:20;;;;;;;1.52;1.30;;;;;;;1.78;71.79;100132.91;5050234;28;20036;-53
2022/04/14 01:23:46;;;;;;;3.80;1.40;;;;;;;1.77;72.05;100128.53;5050657;28;20033;-51
2022/04/14 01:26:11;;;;;;;2.85;1.58;;;;;;;1.77;71.79;100123.25;5049954;28;20140;-52
2022/04/14 01:28:37;;;;;;;4.40;1.55;;;;;;;1.98;70.85;100125.97;5049809;28;20083;-51
2022/04/14 01:31:03;;;;;;;2.45;1.48;;;;;;;1.86;71.89;100128.16;5050642;28;20021;-50
2022/04/14 01:33:28;;;;;;;1.65;1.40;;;;;;;1.81;71.94;100130.13;5050395;28;20045;-52
2022/04/14 01:35:54;;;;;;;3.10;1.55;;;;;;;1.79;71.66;100126.69;5049981;28;20033;-53
2022/04/14 01:38:19;;;;;;;2.92;1.50;;;;;;;1.75;72.17;100125.09;5049487;28;20350;-56
2022/04/14 01:40:45;;;;;;;2.25;1.27;;;;;;;1.74;72.29;100141.00;5050154;28;20768;-53
2022/04/14 01:43:11;;;;;;;1.70;1.20;;;;;;;1.67;72.24;100135.09;5050487;28;20040;-53
2022/04/14 01:45:36;;;;;;;2.45;1.40;;;;;;;1.61;71.74;100122.13;5050104;28;20044;-54
2022/04/14 01:48:01;;;;;;;3.88;1.40;;;;;;;1.64;72.27;100129.94;5049713;28;20458;-52
2022/04/14 01:50:27;;;;;;;1.98;1.20;;;;;;;1.62;72.09;100132.63;5052141;28;20174;-53
2022/04/14 01:52:52;;;;;;;2.42;1.50;;;;;;;1.62;72.18;100135.28;5054221;28;20029;-51
2022/04/14 01:55:18;;;;;;;2.67;1.50;;;;;;;1.60;72.60;100138.88;5051896;28;20039;-53
2022/04/14 01:57:44;;;;;;;2.25;1.40;;;;;;;1.57;72.28;100150.44;5052896;28;20060;-55
2022/04/14 02:00:13;;;;;;;1.45;1.23;;;;;;;1.63;72.22;100123.81;5053548;28;20469;-52
2022/04/14 02:02:39;;;;;;;2.05;1.35;;;;;;;1.63;72.18;100141.41;5054228;28;20025;-53
2022/04/14 02:05:05;;;;;;;2.20;1.38;;;;;;;1.58;72.48;100147.72;5054083;28;20032;-54
2022/04/14 02:07:30;;;;;;;2.65;1.60;;;;;;;1.58;72.20;100153.00;5053102;28;20052;-53
2022/04/14 02:09:56;;;;;;;1.33;1.20;;;;;;;1.50;72.25;100136.59;5053591;28;20036;-56
2022/04/14 02:12:22;;;;;;;3.95;1.58;;;;;;;1.29;72.48;100112.75;5053913;28;20461;-56
2022/04/14 02:14:47;;;;;;;3.13;1.58;;;;;;;1.49;72.47;100145.44;5053177;28;20032;-53
2022/04/14 02:17:13;;;;;;;1.60;1.25;;;;;;;1.14;72.73;100097.50;5052647;28;20422;-51
2022/04/14 02:19:38;;;;;;;2.50;1.55;;;;;;;1.42;72.82;100142.16;5053142;28;20041;-54
2022/04/14 02:22:04;;;;;;;2.30;1.63;;;;;;;1.39;73.26;100154.59;5052919;28;20051;-51
2022/04/14 02:24:30;;;;;;;3.08;1.63;;;;;;;1.39;72.88;100147.56;5052985;28;20045;-54
2022/04/14 02:26:55;;;;;;;2.45;1.50;;;;;;;1.40;72.60;100158.97;5052845;28;20029;-57
2022/04/14 02:29:21;;;;;;;2.90;1.70;;;;;;;1.41;72.96;100164.19;5052912;28;20059;-51
2022/04/14 02:31:46;;;;;;;3.42;1.60;;;;;;;1.38;73.23;100164.31;5053235;28;20044;-54
2022/04/14 02:34:12;;;;;;;1.75;1.50;;;;;;;1.36;72.77;100154.72;5052353;28;20048;-49
2022/04/14 02:36:37;;;;;;;1.90;1.40;;;;;;;1.42;72.92;100163.28;5052766;28;20036;-51
2022/04/14 02:39:03;;;;;;;2.97;1.67;;;;;;;1.41;73.00;100158.03;5052570;28;20124;-54
2022/04/14 02:41:29;;;;;;;6.97;1.58;;;;;;;1.48;72.74;100172.75;5052624;28;20095;-54
2022/04/14 02:43:54;;;;;;;4.20;1.65;;;;;;;1.50;73.02;100173.56;5053040;28;20473;-52
2022/04/14 02:46:20;;;;;;;2.58;1.63;;;;;;;1.52;72.84;100171.72;5052883;28;20060;-51
2022/04/14 02:48:45;;;;;;;1.98;1.45;;;;;;;1.57;72.99;100185.59;5052588;28;20029;-50
2022/04/14 02:51:11;;;;;;;1.60;1.50;;;;;;;1.64;72.95;100177.44;5052950;28;20032;-53
2022/04/14 02:53:37;;;;;;;2.08;1.35;;;;;;;1.69;72.59;100180.78;5052988;28;20048;-54
2022/04/14 02:56:04;;;;;;;3.13;1.50;;;;;;;1.69;72.63;100168.44;5052515;28;20488;-55
2022/04/14 02:58:29;;;;;;;1.70;1.50;;;;;;;1.87;72.09;100184.50;5052287;28;20032;-54
2022/04/14 03:00:55;;;;;;;3.80;1.40;;;;;;;1.96;72.10;100183.28;5052163;28;20029;-54
2022/04/14 03:03:23;;;;;;;1.60;1.45;;;;;;;2.09;71.38;100187.13;5050859;28;20054;-56
2022/04/14 03:05:52;;;;;;;2.00;1.33;;;;;;;2.21;70.70;100190.22;5052311;28;20033;-48
2022/04/14 03:08:18;;;;;;;1.95;1.50;;;;;;;2.33;70.52;100191.50;5052701;28;20032;-53
2022/04/14 03:10:44;;;;;;;1.58;1.33;;;;;;;2.39;70.45;100189.47;5052368;28;20440;-52
2022/04/14 03:13:09;;;;;;;2.85;1.55;;;;;;;2.57;70.03;100193.16;5052050;28;20078;-55
2022/04/14 03:15:35;;;;;;;1.55;1.35;;;;;;;2.73;69.56;100192.50;5051847;28;20495;-54
2022/04/14 03:18:00;;;;;;;1.35;1.25;;;;;;;2.83;69.04;100198.25;5052532;28;20040;-53
2022/04/14 03:20:26;;;;;;;2.03;1.10;;;;;;;2.95;68.48;100197.75;5052246;28;20033;-55
2022/04/14 03:22:51;;;;;;;1.83;1.40;;;;;;;2.99;67.72;100187.88;5051849;28;20147;-55
2022/04/14 03:25:17;;;;;;;2.88;1.10;;;;;;;3.14;67.89;100196.94;5051757;28;20406;-53
2022/04/14 03:27:42;;;;;;;2.55;1.45;;;;;;;3.30;67.21;100200.63;5051555;28;20243;-53
2022/04/14 03:30:10;;;;;;;3.85;1.23;;;;;;;3.43;66.68;100200.09;5052199;28;20643;-53
2022/04/14 03:32:43;;;;;;;1.70;1.20;;;;;;;3.60;66.09;100188.72;5051747;28;20055;-54
2022/04/14 03:35:09;;;;;;;2.25;1.20;;;;;;;3.84;64.97;100201.75;5052258;28;20052;-53
2022/04/14 03:37:35;;;;;;;2.53;1.25;;;;;;;3.95;63.26;100145.63;5051667;28;20397;-53
2022/04/14 03:40:00;;;;;;;1.60;1.30;;;;;;;4.87;62.32;100192.38;5051987;28;20031;-55
2022/04/14 03:42:26;;;;;;;1.63;1.10;;;;;;;5.60;59.14;100185.94;5050140;28;20029;-53
2022/04/14 03:44:52;;;;;;;1.42;1.08;;;;;;;6.42;56.91;100189.41;5051640;28;20033;-54
2022/04/14 03:47:18;;;;;;;2.63;1.05;;;;;;;7.23;54.10;100189.16;5052048;28;20354;-53
2022/04/14 03:49:43;;;;;;;1.90;1.58;;;;;;;7.95;52.38;100186.47;5051953;28;20190;-51
2022/04/14 03:52:08;;;;;;;4.30;1.20;;;;;;;8.82;49.27;100201.34;5051279;28;20036;-54
2022/04/14 03:54:34;;;;;;;1.35;1.08;;;;;;;9.57;47.57;100192.63;5051198;28;20852;-52
2022/04/14 03:57:00;;;;;;;2.15;1.08;;;;;;;10.59;44.80;100192.47;5051712;28;20021;-57
2022/04/14 03:59:25;;;;;;;3.33;1.10;;;;;;;11.48;42.29;100185.75;5051547;28;20036;-57
2022/04/14 04:01:51;;;;;;;1.98;1.40;;;;;;;12.25;41.16;100178.75;5050806;28;20132;-56
2022/04/14 04:04:16;;;;;;;1.95;0.90;;;;;;;13.09;38.62;100197.84;5051014;28;20040;-53
2022/04/14 04:06:42;;;;;;;2.15;1.10;;;;;;;13.71;37.54;100195.22;5051683;28;20029;-53
2022/04/14 04:09:07;;;;;;;2.35;0.90;;;;;;;14.40;36.03;100198.13;5051334;28;20082;-50
2022/04/14 04:11:33;;;;;;;1.27;1.10;;;;;;;15.19;34.50;100191.72;5050944;28;20055;-51
2022/04/14 04:13:58;;;;;;;2.30;1.15;;;;;;;15.65;33.28;100175.66;5051021;28;20071;-53
2022/04/14 04:16:23;;;;;;;1.20;1.05;;;;;;;16.14;32.23;100182.72;5051171;28;20032;-51
2022/04/14 04:18:49;;;;;;;1.20;1.10;;;;;;;16.50;31.56;100182.75;5050814;28;20473;-54
2022/04/14 04:21:14;;;;;;;2.78;1.02;;;;;;;17.02;30.30;100156.03;5051086;28;20029;-53
2022/04/14 04:23:40;;;;;;;1.20;1.10;;;;;;;17.85;29.01;100187.13;5050479;28;20036;-54
2022/04/14 04:26:05;;;;;;;1.58;1.00;;;;;;;18.35;28.30;100181.91;5050985;28;20612;-57
2022/04/14 04:28:31;;;;;;;0.95;0.95;;;;;;;18.57;27.52;100185.81;5050408;28;20429;-57
2022/04/14 04:30:57;;;;;;;5.00;1.20;;;;;;;18.91;27.21;100181.28;5050585;28;20036;-56
2022/04/14 04:33:23;;;;;;;3.17;1.30;;;;;;;19.52;26.19;100186.28;5050797;28;20045;-55
2022/04/14 04:35:52;;;;;;;3.85;1.48;;;;;;;19.94;26.32;100177.00;5032891;28;20051;-57
2022/04/14 04:38:17;;;;;;;1.77;1.30;;;;;;;20.71;24.53;100179.94;5048843;28;20033;-54
2022/04/14 04:40:43;;;;;;;5.00;1.30;;;;;;;21.42;22.94;100175.25;5051410;28;20033;-55
2022/04/14 04:43:09;;;;;;;2.53;1.33;;;;;;;21.64;22.65;100141.66;5050323;28;20032;-51
2022/04/14 04:45:35;;;;;;;2.58;1.20;;;;;;;22.44;22.29;100181.00;5050458;28;20472;-51
2022/04/14 04:48:02;;;;;;;3.55;1.10;;;;;;;22.67;21.05;100169.06;5051251;28;20033;-56
2022/04/14 04:50:28;;;;;;;1.50;1.30;;;;;;;23.15;20.66;100166.53;5050329;28;20104;-56
2022/04/14 04:52:54;;;;;;;1.35;1.25;;;;;;;23.39;20.10;100172.63;5050081;28;20175;-58
2022/04/14 04:55:19;;;;;;;1.20;1.10;;;;;;;23.59;19.68;100167.28;5050689;28;20468;-55
2022/04/14 04:57:45;;;;;;;3.17;1.33;;;;;;;24.08;19.52;100165.44;5050863;28;20029;-54
2022/04/14 05:00:11;;;;;;;3.88;1.27;;;;;;;24.91;18.44;100163.50;5050017;28;20341;-57
2022/04/14 05:02:36;;;;;;;5.40;1.23;;;;;;;25.56;17.37;100167.50;5048842;28;20036;-62
2022/04/14 05:05:03;;;;;;;1.60;1.08;;;;;;;25.70;17.41;100179.25;5050541;28;20037;-62
2022/04/14 05:07:29;;;;;;;1.20;1.00;;;;;;;25.60;16.89;100174.22;5050264;28;20135;-61
2022/04/14 05:09:55;;;;;;;1.63;0.90;;;;;;;25.63;17.05;100165.56;5050019;28;20037;-63
2022/04/14 05:12:20;;;;;;;3.92;1.00;;;;;;;26.21;16.16;100174.03;5050052;28;20087;-61
2022/04/14 05:14:46;;;;;;;2.47;1.50;;;;;;;26.53;15.99;100170.47;5032779;28;20039;-64
2022/04/14 05:17:11;;;;;;;1.08;0.93;;;;;;;27.33;15.26;100164.31;5049800;28;20032;-63
2022/04/14 05:19:37;;;;;;;3.38;0.95;;;;;;;27.87;14.66;100174.75;5049936;28;20040;-64
2022/04/14 05:22:02;;;;;;;1.00;0.90;;;;;;;28.07;14.46;100171.75;5050399;28;20025;-61
2022/04/14 05:24:31;;;;;;;3.45;1.10;;;;;;;28.52;14.40;100169.69;5051109;28;20171;-64
2022/04/14 05:26:57;;;;;;;1.52;0.98;;;;;;;28.63;14.02;100166.13;5053999;28;20030;-62
2022/04/14 05:29:23;;;;;;;2.90;0.85;;;;;;;28.99;13.28;100133.16;5054239;28;20070;-61
2022/04/14 05:31:48;;;;;;;3.30;1.15;;;;;;;29.69;12.75;100149.06;5053929;28;20090;-62
2022/04/14 05:34:14;;;;;;;3.28;1.00;;;;;;;29.84;12.66;100160.41;5054569;28;20489;-63
2022/04/14 05:36:39;;;;;;;3.30;1.25;;;;;;;30.35;12.02;100162.53;5052451;28;20037;-64
2022/04/14 05:39:05;;;;;;;4.32;1.05;;;;;;;30.39;11.87;100160.97;5053685;28;20466;-59
2022/04/14 05:41:32;;;;;;;2.05;1.05;;;;;;;30.89;11.82;100169.59;5053533;28;20078;-61
2022/04/14 05:43:57;;;;;;;1.75;1.02;;;;;;;31.00;11.41;100135.50;5053627;28;20025;-58
2022/04/14 05:46:23;;;;;;;2.42;0.95;;;;;;;31.31;11.34;100160.88;5054074;28;20067;-61
2022/04/14 05:48:49;;;;;;;4.40;1.25;;;;;;;31.54;10.94;100161.72;5053693;28;20063;-61
2022/04/14 05:51:15;;;;;;;2.72;1.20;;;;;;;31.93;10.71;100136.81;5053930;28;20432;-59
2022/04/14 05:53:41;;;;;;;2.55;1.30;;;;;;;32.80;9.86;100151.81;5053932;28;20025;-59
2022/04/14 05:56:07;;;;;;;3.72;1.10;;;;;;;33.05;9.58;100164.22;5053840;28;20612;-60
2022/04/14 05:58:32;;;;;;;3.33;1.13;;;;;;;33.13;9.48;100169.25;5052710;28;20036;-58
2022/04/14 06:00:58;;;;;;;4.50;1.20;;;;;;;33.17;9.66;100144.59;5052294;28;20074;-58
2022/04/14 06:03:25;;;;;;;4.93;1.13;;;;;;;33.54;9.29;100177.06;5053603;28;20322;-60
2022/04/14 06:05:50;;;;;;;2.00;1.00;;;;;;;33.68;8.97;100176.56;5053557;28;20111;-56
2022/04/14 06:08:16;;;;;;;4.30;0.90;;;;;;;34.16;8.85;100177.31;5053090;28;20532;-56
2022/04/14 06:10:41;;;;;;;3.22;0.90;;;;;;;34.56;8.76;100168.53;5053611;28;20037;-59
2022/04/14 06:13:07;;;;;;;1.95;1.08;;;;;;;34.87;8.40;100174.09;5053651;28;20029;-60
2022/04/14 06:15:32;;;;;;;2.22;1.00;;;;;;;34.32;8.28;100152.34;5053475;28;20496;-59
2022/04/14 06:17:58;;;;;;;1.80;0.80;;;;;;;34.42;8.30;100173.78;5052971;28;20033;-63
2022/04/14 06:20:24;;;;;;;4.68;1.10;;;;;;;35.04;8.33;100180.25;5053082;28;20036;-56
2022/04/14 06:22:49;;;;;;;4.25;0.82;;;;;;;35.48;7.60;100178.75;5052090;28;20040;-57
2022/04/14 06:25:22;;;;;;;7.95;0.88;;;;;;;36.01;7.47;100176.66;5052483;28;20028;-53
2022/04/14 06:27:48;;;;;;;1.95;0.85;;;;;;;35.99;7.58;100187.25;5053516;28;20025;-56
2022/04/14 06:30:16;;;;;;;1.83;0.95;;;;;;;36.48;7.34;100186.44;5052773;28;20047;-60
2022/04/14 06:32:42;;;;;;;6.38;0.93;;;;;;;36.54;6.84;100176.13;5047878;28;20369;-62
2022/04/14 06:35:15;;;;;;;7.63;1.20;;;;;;;36.43;7.08;100182.84;5044939;28;20396;-62
2022/04/14 06:37:40;;;;;;;2.70;0.98;;;;;;;35.85;7.31;100145.25;5050494;28;20029;-63
2022/04/14 06:40:06;;;;;;;4.82;1.10;;;;;;;35.30;7.55;100177.44;5052424;28;20495;-64
2022/04/14 06:42:32;;;;;;;4.85;1.30;;;;;;;35.89;6.95;100177.00;5052884;28;20033;-64
2022/04/14 06:44:59;;;;;;;5.45;1.30;;;;;;;36.32;6.94;100168.13;5049875;28;20028;-65
2022/04/14 06:47:26;;;;;;;3.15;1.20;;;;;;;37.08;6.87;100172.59;5052528;28;20556;-61
2022/04/14 06:49:52;;;;;;;3.95;1.50;;;;;;;37.87;6.42;100177.91;5052931;28;20029;-70
2022/04/14 06:52:18;;;;;;;6.32;1.60;;;;;;;36.97;6.24;100177.41;5052577;28;20033;-65
2022/04/14 06:54:44;;;;;;;6.22;1.70;;;;;;;37.03;6.51;100165.13;5052245;28;20909;-64
2022/04/14 06:57:09;;;;;;;3.53;1.20;;;;;;;38.07;5.48;100136.84;5052369;28;20075;-65
2022/04/14 06:59:35;;;;;;;4.68;1.23;;;;;;;38.02;5.76;100162.06;5052467;28;20087;-71
2022/04/14 07:02:00;;;;;;;4.03;1.40;;;;;;;37.48;6.13;100131.41;5052303;28;20496;-65
2022/04/14 07:04:27;;;;;;;3.85;1.15;;;;;;;38.30;5.67;100167.81;5051809;28;20384;-63
2022/04/14 07:06:52;;;;;;;2.35;1.20;;;;;;;38.77;5.54;100165.16;5052538;28;20029;-71
2022/04/14 07:09:18;;;;;;;3.22;1.00;;;;;;;39.16;5.37;100140.69;5052464;28;20033;-66
2022/04/14 07:11:44;;;;;;;3.22;1.23;;;;;;;39.19;5.39;100162.47;5052315;28;20032;-66
2022/04/14 07:14:09;;;;;;;4.03;1.40;;;;;;;39.59;5.15;100157.22;5050408;28;20025;-66
2022/04/14 07:16:35;;;;;;;3.55;1.30;;;;;;;39.30;5.01;100158.31;5052471;28;20041;-65
2022/04/14 07:19:00;;;;;;;3.80;1.20;;;;;;;38.96;5.57;100155.91;5052021;28;20031;-65
2022/04/14 07:21:26;;;;;;;4.25;1.15;;;;;;;39.11;5.24;100166.81;5052269;28;20069;-60
2022/04/14 07:23:51;;;;;;;2.67;1.10;;;;;;;39.49;4.94;100143.41;5051556;28;20028;-66
2022/04/14 07:26:17;;;;;;;2.55;1.10;;;;;;;39.67;4.91;100154.81;5052158;28;20031;-66
2022/04/14 07:28:43;;;;;;;1.73;1.08;;;;;;;39.82;4.92;100148.94;5052315;28;20155;-67
2022/04/14 07:31:08;;;;;;;2.58;1.27;;;;;;;39.59;4.58;100145.19;5051467;28;20032;-66
2022/04/14 07:33:34;;;;;;;3.08;1.35;;;;;;;38.99;4.66;100144.09;5051227;28;20041;-66
2022/04/14 07:36:00;;;;;;;3.78;1.17;;;;;;;38.95;4.69;100143.03;5051272;28;20040;-66
2022/04/14 07:38:25;;;;;;;1.85;1.17;;;;;;;39.41;4.84;100135.75;5052164;28;20033;-68
2022/04/14 07:40:51;;;;;;;1.63;1.00;;;;;;;39.02;5.01;100138.69;5050332;28;20033;-64
2022/04/14 07:43:16;;;;;;;0.90;0.80;;;;;;;38.80;5.13;100113.31;5051314;28;20029;-65
2022/04/14 07:45:45;;;;;;;3.35;1.10;;;;;;;38.31;5.11;100107.97;5051392;28;20523;-65
2022/04/14 07:48:11;;;;;;;4.80;0.93;;;;;;;37.81;5.49;100125.97;5050067;28;20041;-62
2022/04/14 07:50:37;;;;;;;3.15;1.27;;;;;;;37.62;5.86;100132.41;5031290;28;20056;-65
2022/04/14 07:53:03;;;;;;;6.63;1.13;;;;;;;37.84;5.66;100121.78;5031341;28;20469;-63
2022/04/14 07:55:31;;;;;;;3.92;1.05;;;;;;;37.39;6.14;100133.22;5031328;28;20033;-64
2022/04/14 07:57:58;;;;;;;2.55;1.00;;;;;;;36.85;5.93;100124.78;5031547;28;20405;-62
2022/04/14 08:00:26;;;;;;;3.30;1.10;;;;;;;36.03;6.35;100139.03;5031664;28;20068;-64
2022/04/14 08:02:59;;;;;;;3.75;0.82;;;;;;;35.51;6.93;100149.56;5030743;28;20110;-64
2022/04/14 08:05:28;;;;;;;2.58;0.90;;;;;;;33.80;7.54;100146.63;5048940;28;20037;-65
2022/04/14 08:07:53;;;;;;;2.55;1.10;;;;;;;31.36;8.74;100151.81;5051644;28;20025;-64
2022/04/14 08:10:20;;;;;;;3.88;1.10;;;;;;;28.36;10.09;100144.50;5051052;28;20090;-65
2022/04/14 08:12:47;;;;;;;3.95;0.98;;;;;;;25.02;12.94;100147.50;5051045;28;20412;-64
2022/04/14 08:15:14;;;;;;;4.07;0.98;;;;;;;22.27;14.60;100158.56;5050946;28;20029;-62
2022/04/14 08:17:43;;;;;;;7.95;1.10;;;;;;;20.17;16.33;100140.06;5051194;28;20138;-64
2022/04/14 08:20:11;;;;;;;7.00;1.00;;;;;;;18.51;17.09;100154.78;5050330;28;20097;-61
2022/04/14 08:22:48;;;;;;;10.48;1.02;;;;;;;17.33;18.31;100158.25;5050640;28;20536;-62
2022/04/14 08:25:16;;;;;;;2.10;0.90;;;;;;;16.12;20.32;100157.69;5049653;28;20029;-61
2022/04/14 08:27:41;;;;;;;2.78;1.10;;;;;;;14.95;22.52;100138.28;5050639;28;20081;-62
2022/04/14 08:30:07;;;;;;;3.88;1.05;;;;;;;13.92;24.38;100152.94;5050807;28;20124;-65
2022/04/14 08:32:34;;;;;;;2.03;1.10;;;;;;;13.59;25.50;100140.66;5049603;28;20142;-66
2022/04/14 08:35:01;;;;;;;5.38;0.98;;;;;;;13.49;25.94;100138.78;5050452;28;20555;-66
2022/04/14 08:37:27;;;;;;;3.85;1.08;;;;;;;13.54;25.80;100133.00;5051502;28;20112;-63
2022/04/14 08:39:52;;;;;;;3.30;0.80;;;;;;;13.64;26.10;100128.50;5049242;28;20119;-62
2022/04/14 08:42:24;;;;;;;8.93;0.98;;;;;;;13.75;25.72;100146.38;5050377;28;20479;-64
2022/04/14 08:45:01;;;;;;;4.05;0.73;;;;;;;13.61;25.08;100136.84;5050627;28;20057;-64
2022/04/14 08:47:29;;;;;;;3.20;0.98;;;;;;;13.23;25.63;100103.38;5050967;28;20456;-65
2022/04/14 08:49:56;;;;;;;6.55;0.77;;;;;;;13.28;25.92;100137.94;5049789;28;20047;-67
2022/04/14 08:52:22;;;;;;;2.95;0.75;;;;;;;13.23;26.61;100130.25;5048877;28;20029;-64
2022/04/14 08:54:49;;;;;;;2.45;0.70;;;;;;;13.24;26.13;100126.59;5050618;28;20362;-65
2022/04/14 08:57:15;;;;;;;2.65;0.85;;;;;;;13.12;26.37;100122.28;5050096;28;20385;-61
2022/04/14 08:59:45;;;;;;;1.08;0.75;;;;;;;13.10;26.57;100125.09;5049097;28;20039;-61
2022/04/14 09:02:16;;;;;;;1.80;0.80;;;;;;;13.07;26.65;100126.25;5049862;28;20021;-63
2022/04/14 09:04:43;;;;;;;1.65;0.82;;;;;;;13.04;26.80;100131.88;5049930;28;20116;-66
2022/04/14 09:07:12;;;;;;;2.78;0.60;;;;;;;12.94;26.73;100130.94;5050151;28;20037;-64
2022/04/14 09:09:39;;;;;;;3.63;0.77;;;;;;;12.91;26.57;100117.78;5049414;28;20060;-64
2022/04/14 09:12:07;;;;;;;2.20;0.63;;;;;;;12.95;26.51;100115.69;5039627;28;20033;-62
2022/04/14 09:14:34;;;;;;;6.07;0.98;;;;;;;12.98;27.00;100105.50;5050196;28;20091;-61
2022/04/14 09:17:07;;;;;;;3.55;0.90;;;;;;;13.07;26.61;100107.41;5050247;28;20044;-60
2022/04/14 09:19:34;;;;;;;3.03;0.82;;;;;;;13.06;26.37;100108.41;5049436;28;20033;-59
2022/04/14 09:22:07;;;;;;;3.70;0.77;;;;;;;13.04;26.36;100114.88;5050145;28;20029;-64
2022/04/14 09:24:49;;;;;;;3.15;1.00;;;;;;;13.16;26.02;100110.28;5050117;28;20029;-61
2022/04/14 09:27:26;;;;;;;2.63;0.90;;;;;;;13.11;26.75;100118.75;5050262;28;20025;-62
2022/04/14 09:29:54;;;;;;;4.40;0.75;;;;;;;13.03;26.70;100114.06;5049817;28;20055;-60
2022/04/14 09:32:46;;;;;;;5.47;1.30;;;;;;;13.18;26.42;100116.38;5050200;28;20064;-63
2022/04/14 09:35:19;;;;;;;5.45;1.05;;;;;;;13.07;26.17;100115.47;5049238;28;20049;-65
2022/04/14 09:37:45;;;;;;;1.58;0.60;;;;;;;12.96;26.55;100115.53;5050029;28;20032;-63
2022/04/14 09:40:12;;;;;;;3.25;1.00;;;;;;;12.89;26.93;100107.16;5049942;28;20594;-63
2022/04/14 09:42:39;;;;;;;1.88;0.80;;;;;;;12.60;27.14;100105.13;5050293;28;20064;-64
2022/04/14 09:45:21;;;;;;;2.90;0.73;;;;;;;12.71;27.23;100106.91;5049913;28;20052;-63
2022/04/14 09:47:48;;;;;;;2.83;0.70;;;;;;;12.68;27.04;100103.66;5049778;28;20040;-65
2022/04/14 09:50:32;;;;;;;3.42;0.80;;;;;;;12.84;27.03;100105.88;5048833;28;20044;-62
2022/04/14 09:53:05;;;;;;;3.75;0.82;;;;;;;12.78;27.42;100101.88;5049997;28;20587;-63
2022/04/14 09:55:32;;;;;;;2.78;0.85;;;;;;;12.82;26.43;100111.34;5049629;28;20346;-59
2022/04/14 09:58:17;;;;;;;2.58;0.52;;;;;;;12.89;26.50;100100.94;5049734;28;20067;-62
2022/04/14 10:00:44;;;;;;;2.75;0.70;;;;;;;12.83;27.06;100093.41;5049601;28;20124;-64
2022/04/14 10:03:21;;;;;;;2.97;0.80;;;;;;;12.71;26.14;100063.09;5047653;28;20040;-64
2022/04/14 10:05:48;;;;;;;2.72;0.88;;;;;;;12.96;25.69;100106.66;5049028;28;20083;-64
2022/04/14 10:08:15;;;;;;;3.45;0.90;;;;;;;12.52;26.80;100099.56;5049767;28;20063;-64
2022/04/14 10:10:43;;;;;;;1.73;0.85;;;;;;;12.35;26.96;100055.34;5040427;28;20029;-62
2022/04/14 10:13:18;;;;;;;2.38;0.70;;;;;;;12.45;27.42;100099.22;5041601;28;20029;-64
2022/04/14 10:15:45;;;;;;;6.28;0.80;;;;;;;12.52;27.06;100101.38;5041526;28;20028;-63
2022/04/14 10:18:16;;;;;;;1.08;0.60;;;;;;;12.48;27.03;100103.50;5041715;28;20829;-59
2022/04/14 10:20:43;;;;;;;2.72;0.98;;;;;;;12.26;27.07;100069.53;5042501;28;20026;-60
2022/04/14 10:23:10;;;;;;;3.25;0.57;;;;;;;12.45;26.98;100082.28;5033055;28;20117;-64
2022/04/14 10:25:37;;;;;;;2.95;0.65;;;;;;;12.60;27.00;100096.25;5033578;28;20030;-62
2022/04/14 10:28:06;;;;;;;1.67;0.60;;;;;;;12.74;26.91;100100.44;5033363;28;20464;-64
2022/04/14 10:30:32;;;;;;;3.72;0.60;;;;;;;12.71;26.92;100100.69;5032160;28;20421;-65
2022/04/14 10:32:58;;;;;;;1.20;0.90;;;;;;;12.74;27.12;100103.94;5033348;28;20041;-62
2022/04/14 10:35:28;;;;;;;1.70;0.80;;;;;;;12.81;26.81;100106.97;5036475;28;20033;-62
2022/04/14 10:38:20;;;;;;;1.15;0.75;;;;;;;12.88;27.04;100099.25;5051457;28;20437;-60
2022/04/14 10:40:53;;;;;;;3.63;0.80;;;;;;;13.03;26.50;100092.56;5052926;28;20441;-60
2022/04/14 10:43:22;;;;;;;2.97;0.88;;;;;;;12.67;26.85;100089.34;5052859;28;20059;-61
2022/04/14 10:45:51;;;;;;;4.68;0.80;;;;;;;12.61;27.06;100092.56;5053020;28;20033;-65
2022/04/14 10:48:25;;;;;;;3.08;0.80;;;;;;;12.78;27.02;100088.44;5052448;28;20029;-60
2022/04/14 10:51:11;;;;;;;2.72;0.70;;;;;;;12.78;26.82;100086.59;5052415;28;20083;-62
2022/04/14 10:53:48;;;;;;;3.05;0.90;;;;;;;12.91;26.91;100104.34;5052335;28;20473;-64
2022/04/14 10:56:44;;;;;;;1.83;1.00;;;;;;;12.83;27.03;100091.56;5052349;28;20547;-64
2022/04/14 10:59:14;;;;;;;3.30;0.52;;;;;;;12.72;26.77;100087.13;5052597;28;20388;-66
2022/04/14 11:01:46;;;;;;;2.88;0.90;;;;;;;12.81;27.00;100073.91;5052819;28;20053;-62
2022/04/14 11:04:33;;;;;;;1.75;0.60;;;;;;;12.87;26.69;100070.66;5052268;28;20404;-62
2022/04/14 11:07:10;;;;;;;1.50;0.68;;;;;;;12.82;26.71;100064.84;5052025;28;20024;-64
2022/04/14 11:09:42;;;;;;;2.22;0.82;;;;;;;12.84;26.90;100060.19;5052602;28;20445;-65
2022/04/14 11:12:09;;;;;;;1.58;0.80;;;;;;;12.73;26.76;100059.25;5051941;28;20028;-66
2022/04/14 11:14:44;;;;;;;1.30;0.60;;;;;;;12.68;26.80;100018.53;5052420;28;20112;-67
2022/04/14 11:20:15;;;;;;;2.38;0.80;;;;;;;12.51;27.85;100054.03;5052488;28;20107;-63
2022/04/14 11:23:12;;;;;;;2.97;0.85;;;;;;;12.67;27.66;100048.22;5050520;28;20195;-62
2022/04/14 11:25:47;;;;;;;4.60;0.82;;;;;;;12.68;27.96;100048.06;5051721;28;20029;-62
2022/04/14 11:28:33;;;;;;;2.40;0.80;;;;;;;12.88;27.54;100051.72;5052243;28;20032;-61
2022/04/14 11:31:17;;;;;;;2.53;0.50;;;;;;;12.76;27.44;100048.25;5052444;28;20078;-64
2022/04/14 11:33:44;;;;;;;1.38;0.65;;;;;;;12.60;27.96;100047.88;5051654;28;20057;-63
2022/04/14 11:36:20;;;;;;;3.38;0.60;;;;;;;12.64;27.64;100049.31;5051335;28;20420;-63